createdAt,value
2017-07-18T00:00:55.333Z,10.61
2017-07-18T00:01:55.290Z,10.61
2017-07-18T00:02:55.308Z,10.60
2017-07-18T00:03:55.357Z,10.60
2017-07-18T00:04:55.320Z,10.58
2017-07-18T00:05:55.406Z,10.58
2017-07-18T00:06:55.404Z,10.56
2017-07-18T00:07:55.353Z,10.52
2017-07-18T00:08:55.345Z,10.50
2017-07-18T00:09:55.313Z,10.46
2017-07-18T00:10:55.421Z,10.41
2017-07-18T00:11:55.324Z,10.36
2017-07-18T00:12:55.385Z,10.31
2017-07-18T00:13:55.419Z,10.25
2017-07-18T00:14:55.340Z,10.25
2017-07-18T00:15:55.293Z,10.25
2017-07-18T00:16:55.342Z,10.20
2017-07-18T00:17:55.316Z,10.16
2017-07-18T00:18:55.341Z,10.14
2017-07-18T00:19:55.342Z,10.13
2017-07-18T00:20:55.343Z,10.08
2017-07-18T00:21:55.346Z,10.08
2017-07-18T00:22:55.349Z,10.06
2017-07-18T00:23:55.351Z,10.06
2017-07-18T00:24:55.358Z,10.04
2017-07-18T00:25:55.379Z,10.02
2017-07-18T00:26:55.403Z,10.01
2017-07-18T00:27:55.396Z,9.97
2017-07-18T00:28:55.399Z,9.94
2017-07-18T00:29:55.333Z,9.94
2017-07-18T00:30:55.325Z,10.00
2017-07-18T00:31:55.360Z,10.04
2017-07-18T00:32:55.366Z,10.04
2017-07-18T00:33:55.444Z,10.02
2017-07-18T00:34:55.394Z,10.00
2017-07-18T00:35:55.420Z,9.97
2017-07-18T00:36:55.335Z,9.94
2017-07-18T00:37:55.360Z,9.90
2017-07-18T00:38:55.374Z,9.90
2017-07-18T00:39:55.430Z,9.89
2017-07-18T00:40:55.373Z,9.86
2017-07-18T00:41:55.366Z,9.82
2017-07-18T00:42:55.427Z,9.82
2017-07-18T00:43:55.367Z,9.82
2017-07-18T00:44:55.393Z,9.82
2017-07-18T00:45:55.434Z,9.82
2017-07-18T00:46:55.345Z,9.84
2017-07-18T00:47:55.342Z,9.93
2017-07-18T00:48:55.347Z,10.02
2017-07-18T00:49:55.439Z,10.11
2017-07-18T00:50:55.339Z,10.14
2017-07-18T00:51:55.370Z,10.20
2017-07-18T00:52:55.379Z,10.20
2017-07-18T00:53:55.433Z,10.20
2017-07-18T00:54:55.409Z,10.18
2017-07-18T00:55:55.379Z,10.16
2017-07-18T00:56:55.436Z,10.05
2017-07-18T00:57:55.475Z,9.97
2017-07-18T00:58:55.351Z,9.93
2017-07-18T00:59:55.402Z,9.91
2017-07-18T01:00:55.384Z,9.89
2017-07-18T01:01:55.400Z,9.87
2017-07-18T01:02:55.413Z,9.84
2017-07-18T01:03:55.386Z,9.80
2017-07-18T01:04:55.401Z,9.79
2017-07-18T01:05:55.426Z,9.76
2017-07-18T01:06:55.343Z,9.78
2017-07-18T01:07:55.374Z,9.76
2017-07-18T01:08:55.406Z,9.76
2017-07-18T01:09:55.405Z,9.76
2017-07-18T01:10:55.413Z,9.78
2017-07-18T01:11:55.346Z,9.79
2017-07-18T01:12:55.410Z,9.75
2017-07-18T01:13:55.411Z,9.71
2017-07-18T01:14:55.410Z,9.68
2017-07-18T01:15:55.349Z,9.69
2017-07-18T01:16:55.362Z,9.72
2017-07-18T01:17:55.381Z,9.73
2017-07-18T01:18:55.350Z,9.75
2017-07-18T01:19:55.349Z,9.72
2017-07-18T01:20:55.414Z,9.68
2017-07-18T01:21:55.354Z,9.62
2017-07-18T01:22:55.416Z,9.55
2017-07-18T01:23:55.378Z,9.50
2017-07-18T01:24:55.392Z,9.50
2017-07-18T01:25:55.394Z,9.44
2017-07-18T01:26:55.372Z,9.42
2017-07-18T01:27:55.397Z,9.47
2017-07-18T01:28:55.396Z,9.54
2017-07-18T01:29:55.385Z,9.54
2017-07-18T01:30:55.393Z,9.49
2017-07-18T01:31:55.451Z,9.44
2017-07-18T01:32:55.389Z,9.39
2017-07-18T01:33:55.425Z,9.31
2017-07-18T01:34:55.420Z,9.28
2017-07-18T01:35:55.422Z,9.38
2017-07-18T01:36:55.427Z,9.38
2017-07-18T01:37:55.388Z,9.39
2017-07-18T01:38:55.389Z,9.42
2017-07-18T01:39:55.423Z,9.42
2017-07-18T01:40:55.365Z,9.42
2017-07-18T01:41:55.361Z,9.38
2017-07-18T01:42:55.395Z,9.34
2017-07-18T01:43:55.392Z,9.28
2017-07-18T01:44:55.441Z,9.25
2017-07-18T01:45:55.439Z,9.25
2017-07-18T01:46:55.445Z,9.27
2017-07-18T01:47:55.414Z,9.27
2017-07-18T01:48:55.407Z,9.25
2017-07-18T01:49:55.430Z,9.23
2017-07-18T01:50:55.445Z,9.22
2017-07-18T01:51:55.451Z,9.23
2017-07-18T01:52:55.414Z,9.22
2017-07-18T01:53:55.467Z,9.19
2017-07-18T01:54:55.386Z,9.18
2017-07-18T01:55:55.438Z,9.20
2017-07-18T01:56:55.414Z,9.22
2017-07-18T01:57:55.381Z,9.20
2017-07-18T01:58:55.385Z,9.19
2017-07-18T01:59:55.506Z,9.19
2017-07-18T02:00:55.416Z,9.16
2017-07-18T02:01:55.455Z,9.19
2017-07-18T02:02:55.382Z,9.23
2017-07-18T02:03:55.442Z,9.31
2017-07-18T02:04:55.409Z,9.31
2017-07-18T02:05:55.437Z,9.30
2017-07-18T02:06:55.477Z,9.30
2017-07-18T02:07:55.427Z,9.31
2017-07-18T02:08:55.419Z,9.31
2017-07-18T02:09:55.416Z,9.25
2017-07-18T02:10:55.460Z,9.16
2017-07-18T02:11:55.481Z,9.12
2017-07-18T02:12:55.423Z,9.08
2017-07-18T02:13:55.492Z,9.02
2017-07-18T02:14:55.441Z,9.00
2017-07-18T02:15:55.444Z,9.02
2017-07-18T02:16:55.439Z,9.04
2017-07-18T02:17:55.413Z,9.07
2017-07-18T02:18:55.423Z,9.05
2017-07-18T02:19:55.415Z,9.05
2017-07-18T02:20:55.410Z,9.04
2017-07-18T02:21:55.419Z,9.02
2017-07-18T02:22:55.388Z,9.00
2017-07-18T02:23:55.448Z,8.96
2017-07-18T02:24:55.450Z,8.96
2017-07-18T02:25:55.392Z,8.94
2017-07-18T02:26:55.402Z,8.93
2017-07-18T02:27:55.449Z,8.94
2017-07-18T02:28:55.425Z,8.96
2017-07-18T02:29:55.452Z,8.96
2017-07-18T02:30:55.423Z,8.93
2017-07-18T02:31:55.393Z,8.90
2017-07-18T02:32:55.394Z,8.89
2017-07-18T02:33:55.392Z,8.87
2017-07-18T02:34:55.400Z,8.89
2017-07-18T02:35:55.345Z,8.89
2017-07-18T02:36:55.401Z,8.87
2017-07-18T02:37:55.399Z,8.87
2017-07-18T02:38:55.455Z,8.86
2017-07-18T02:39:55.386Z,8.85
2017-07-18T02:40:55.341Z,8.83
2017-07-18T02:41:55.385Z,8.82
2017-07-18T02:42:55.389Z,8.85
2017-07-18T02:43:55.423Z,8.83
2017-07-18T02:44:55.401Z,8.82
2017-07-18T02:45:55.401Z,8.82
2017-07-18T02:46:55.463Z,8.85
2017-07-18T02:47:55.400Z,8.80
2017-07-18T02:48:55.488Z,8.82
2017-07-18T02:49:55.404Z,8.79
2017-07-18T02:50:55.431Z,8.76
2017-07-18T02:51:55.466Z,8.78
2017-07-18T02:52:55.432Z,8.75
2017-07-18T02:53:55.430Z,8.75
2017-07-18T02:54:55.385Z,8.76
2017-07-18T02:55:55.434Z,8.76
2017-07-18T02:56:55.427Z,8.79
2017-07-18T02:57:55.479Z,8.79
2017-07-18T02:58:55.378Z,8.78
2017-07-18T02:59:55.382Z,8.80
2017-07-18T03:00:55.440Z,8.75
2017-07-18T03:01:55.392Z,8.71
2017-07-18T03:02:55.415Z,8.65
2017-07-18T03:03:55.389Z,8.61
2017-07-18T03:04:55.418Z,8.61
2017-07-18T03:05:55.436Z,8.61
2017-07-18T03:06:55.447Z,8.60
2017-07-18T03:07:55.411Z,8.58
2017-07-18T03:08:55.441Z,8.60
2017-07-18T03:09:55.413Z,8.60
2017-07-18T03:10:55.477Z,8.57
2017-07-18T03:11:55.415Z,8.56
2017-07-18T03:12:55.478Z,8.54
2017-07-18T03:13:55.472Z,8.60
2017-07-18T03:14:55.502Z,8.58
2017-07-18T03:15:55.415Z,8.57
2017-07-18T03:16:55.420Z,8.57
2017-07-18T03:17:55.420Z,8.58
2017-07-18T03:18:55.475Z,8.60
2017-07-18T03:19:55.445Z,8.62
2017-07-18T03:20:55.420Z,8.64
2017-07-18T03:21:55.417Z,8.65
2017-07-18T03:22:55.423Z,8.62
2017-07-18T03:23:55.448Z,8.61
2017-07-18T03:24:55.506Z,8.61
2017-07-18T03:25:55.495Z,8.61
2017-07-18T03:26:55.465Z,8.60
2017-07-18T03:27:55.530Z,8.60
2017-07-18T03:28:55.524Z,8.60
2017-07-18T03:29:55.531Z,8.58
2017-07-18T03:30:55.490Z,8.60
2017-07-18T03:31:55.534Z,8.58
2017-07-18T03:32:55.473Z,8.56
2017-07-18T03:33:55.533Z,8.51
2017-07-18T03:34:55.490Z,8.51
2017-07-18T03:35:55.430Z,8.54
2017-07-18T03:36:55.433Z,8.57
2017-07-18T03:37:55.494Z,8.58
2017-07-18T03:38:55.432Z,8.65
2017-07-18T03:39:55.456Z,8.65
2017-07-18T03:40:55.501Z,8.67
2017-07-18T03:41:55.500Z,8.65
2017-07-18T03:42:55.492Z,8.65
2017-07-18T03:43:55.437Z,8.62
2017-07-18T03:44:55.513Z,8.62
2017-07-18T03:45:55.437Z,8.62
2017-07-18T03:46:55.533Z,8.62
2017-07-18T03:47:55.445Z,8.65
2017-07-18T03:48:55.504Z,8.69
2017-07-18T03:49:55.515Z,8.64
2017-07-18T03:50:55.471Z,8.57
2017-07-18T03:51:55.443Z,8.56
2017-07-18T03:52:55.540Z,8.57
2017-07-18T03:53:55.484Z,8.60
2017-07-18T03:54:55.454Z,8.60
2017-07-18T03:55:55.376Z,8.58
2017-07-18T03:56:55.383Z,8.58
2017-07-18T03:57:55.380Z,8.57
2017-07-18T03:58:55.462Z,8.58
2017-07-18T03:59:55.445Z,8.60
2017-07-18T04:00:55.460Z,8.62
2017-07-18T04:01:55.458Z,8.64
2017-07-18T04:02:55.445Z,8.67
2017-07-18T04:03:55.447Z,8.71
2017-07-18T04:04:55.444Z,8.71
2017-07-18T04:05:55.534Z,8.72
2017-07-18T04:06:55.520Z,8.75
2017-07-18T04:07:55.506Z,8.78
2017-07-18T04:08:55.479Z,8.82
2017-07-18T04:09:55.515Z,8.83
2017-07-18T04:10:55.516Z,8.89
2017-07-18T04:11:55.542Z,8.93
2017-07-18T04:12:55.540Z,8.97
2017-07-18T04:13:55.453Z,9.01
2017-07-18T04:14:55.453Z,9.07
2017-07-18T04:15:55.450Z,9.07
2017-07-18T04:16:55.518Z,9.11
2017-07-18T04:17:55.602Z,9.16
2017-07-18T04:18:55.485Z,9.19
2017-07-18T04:19:55.522Z,9.23
2017-07-18T04:20:55.487Z,9.25
2017-07-18T04:21:55.481Z,9.27
2017-07-18T04:22:55.481Z,9.36
2017-07-18T04:23:55.469Z,9.43
2017-07-18T04:24:55.475Z,9.51
2017-07-18T04:25:55.479Z,9.57
2017-07-18T04:26:55.412Z,9.64
2017-07-18T04:27:55.411Z,9.71
2017-07-18T04:28:55.414Z,9.80
2017-07-18T04:29:55.459Z,9.86
2017-07-18T04:30:55.479Z,9.94
2017-07-18T04:31:55.437Z,10.04
2017-07-18T04:32:55.463Z,10.11
2017-07-18T04:33:55.434Z,10.16
2017-07-18T04:34:55.497Z,10.18
2017-07-18T04:35:55.456Z,10.21
2017-07-18T04:36:55.487Z,10.23
2017-07-18T04:37:55.492Z,10.25
2017-07-18T04:38:55.460Z,10.28
2017-07-18T04:39:55.488Z,10.31
2017-07-18T04:40:55.522Z,10.32
2017-07-18T04:41:55.530Z,10.35
2017-07-18T04:42:55.465Z,10.38
2017-07-18T04:43:55.526Z,10.41
2017-07-18T04:44:55.463Z,10.43
2017-07-18T04:45:55.479Z,10.47
2017-07-18T04:46:55.540Z,10.50
2017-07-18T04:47:55.536Z,10.53
2017-07-18T04:48:55.536Z,10.56
2017-07-18T04:49:55.475Z,10.60
2017-07-18T04:50:55.483Z,10.64
2017-07-18T04:51:55.542Z,10.65
2017-07-18T04:52:55.602Z,10.65
2017-07-18T04:53:55.480Z,10.67
2017-07-18T04:54:55.572Z,10.69
2017-07-18T04:55:55.507Z,10.72
2017-07-18T04:56:55.480Z,10.77
2017-07-18T04:57:55.541Z,10.77
2017-07-18T04:58:55.508Z,10.75
2017-07-18T04:59:55.519Z,10.74
2017-07-18T05:00:55.519Z,10.74
2017-07-18T05:01:55.569Z,10.72
2017-07-18T05:02:55.555Z,10.72
2017-07-18T05:03:55.548Z,10.69
2017-07-18T05:04:55.566Z,10.69
2017-07-18T05:05:55.569Z,10.68
2017-07-18T05:06:55.491Z,10.68
2017-07-18T05:07:55.557Z,10.69
2017-07-18T05:08:55.505Z,10.74
2017-07-18T05:09:55.481Z,10.74
2017-07-18T05:10:55.591Z,10.74
2017-07-18T05:11:55.581Z,10.74
2017-07-18T05:12:55.490Z,10.74
2017-07-18T05:13:55.574Z,10.75
2017-07-18T05:14:55.488Z,10.77
2017-07-18T05:15:55.542Z,10.79
2017-07-18T05:16:55.495Z,10.81
2017-07-18T05:17:55.497Z,10.84
2017-07-18T05:18:55.495Z,10.86
2017-07-18T05:19:55.581Z,10.90
2017-07-18T05:20:55.531Z,10.93
2017-07-18T05:21:55.581Z,10.95
2017-07-18T05:22:55.590Z,10.95
2017-07-18T05:23:55.568Z,10.95
2017-07-18T05:24:55.589Z,10.97
2017-07-18T05:25:55.484Z,11.00
2017-07-18T05:26:55.655Z,11.03
2017-07-18T05:27:55.517Z,11.07
2017-07-18T05:28:55.518Z,11.09
2017-07-18T05:29:55.556Z,11.14
2017-07-18T05:30:55.486Z,11.18
2017-07-18T05:31:55.515Z,11.24
2017-07-18T05:32:55.555Z,11.28
2017-07-18T05:33:55.519Z,11.29
2017-07-18T05:34:55.488Z,11.35
2017-07-18T05:35:55.565Z,11.38
2017-07-18T05:36:55.536Z,11.38
2017-07-18T05:37:55.534Z,11.42
2017-07-18T05:38:55.548Z,11.46
2017-07-18T05:39:55.540Z,11.47
2017-07-18T05:40:55.555Z,11.50
2017-07-18T05:41:55.604Z,11.53
2017-07-18T05:42:55.508Z,11.57
2017-07-18T05:43:55.540Z,11.58
2017-07-18T05:44:55.513Z,11.64
2017-07-18T05:45:55.524Z,11.68
2017-07-18T05:46:55.542Z,11.72
2017-07-18T05:47:55.541Z,11.75
2017-07-18T05:48:55.563Z,11.78
2017-07-18T05:49:55.599Z,11.80
2017-07-18T05:50:55.602Z,11.82
2017-07-18T05:51:55.512Z,11.87
2017-07-18T05:52:55.544Z,11.98
2017-07-18T05:53:55.511Z,12.14
2017-07-18T05:54:55.566Z,12.33
2017-07-18T05:55:55.520Z,12.55
2017-07-18T05:56:55.574Z,12.75
2017-07-18T05:57:55.546Z,12.92
2017-07-18T05:58:55.548Z,13.07
2017-07-18T05:59:55.536Z,13.18
2017-07-18T06:00:55.603Z,13.31
2017-07-18T06:01:55.522Z,13.43
2017-07-18T06:02:55.541Z,13.69
2017-07-18T06:03:55.543Z,13.92
2017-07-18T06:04:55.591Z,14.04
2017-07-18T06:05:55.524Z,14.22
2017-07-18T06:06:55.480Z,14.22
2017-07-18T06:07:55.514Z,14.11
2017-07-18T06:08:55.498Z,14.09
2017-07-18T06:09:55.418Z,14.17
2017-07-18T06:10:55.501Z,14.27
2017-07-18T06:11:55.508Z,14.40
2017-07-18T06:12:55.514Z,14.61
2017-07-18T06:13:55.509Z,14.78
2017-07-18T06:14:55.421Z,14.92
2017-07-18T06:15:55.591Z,14.96
2017-07-18T06:16:55.594Z,14.98
2017-07-18T06:17:55.533Z,15.19
2017-07-18T06:18:55.594Z,15.32
2017-07-18T06:19:55.711Z,15.36
2017-07-18T06:20:55.560Z,15.37
2017-07-18T06:21:55.561Z,15.44
2017-07-18T06:22:55.619Z,15.42
2017-07-18T06:23:55.616Z,15.44
2017-07-18T06:24:55.535Z,15.44
2017-07-18T06:25:55.561Z,15.55
2017-07-18T06:26:55.528Z,15.61
2017-07-18T06:27:55.615Z,15.66
2017-07-18T06:28:55.547Z,15.68
2017-07-18T06:29:55.584Z,15.65
2017-07-18T06:30:55.532Z,15.69
2017-07-18T06:31:55.622Z,15.70
2017-07-18T06:32:55.570Z,15.69
2017-07-18T06:33:55.568Z,15.72
2017-07-18T06:34:55.535Z,15.73
2017-07-18T06:35:55.551Z,15.76
2017-07-18T06:36:55.557Z,15.86
2017-07-18T06:37:55.502Z,15.94
2017-07-18T06:38:55.599Z,16.13
2017-07-18T06:39:55.557Z,16.14
2017-07-18T06:40:55.563Z,16.27
2017-07-18T06:41:55.602Z,16.35
2017-07-18T06:42:55.509Z,16.36
2017-07-18T06:43:55.557Z,16.33
2017-07-18T06:44:55.516Z,16.36
2017-07-18T06:45:55.598Z,16.44
2017-07-18T06:46:55.537Z,16.52
2017-07-18T06:47:55.597Z,16.68
2017-07-18T06:48:55.568Z,16.90
2017-07-18T06:49:55.530Z,16.92
2017-07-18T06:50:55.568Z,17.10
2017-07-18T06:51:55.600Z,17.31
2017-07-18T06:52:55.566Z,17.33
2017-07-18T06:53:55.546Z,17.49
2017-07-18T06:54:55.569Z,17.72
2017-07-18T06:55:55.546Z,17.87
2017-07-18T06:56:55.569Z,17.99
2017-07-18T06:57:55.560Z,17.79
2017-07-18T06:58:55.578Z,17.77
2017-07-18T06:59:55.545Z,17.88
2017-07-18T07:00:55.612Z,17.89
2017-07-18T07:01:55.583Z,17.87
2017-07-18T07:02:55.620Z,17.79
2017-07-18T07:03:55.526Z,17.80
2017-07-18T07:04:55.570Z,17.99
2017-07-18T07:05:55.576Z,18.07
2017-07-18T07:06:55.571Z,18.14
2017-07-18T07:07:55.529Z,18.34
2017-07-18T07:08:55.551Z,18.35
2017-07-18T07:09:55.571Z,18.51
2017-07-18T07:10:55.587Z,18.46
2017-07-18T07:11:55.572Z,18.43
2017-07-18T07:12:55.573Z,18.36
2017-07-18T07:13:55.553Z,18.23
2017-07-18T07:14:55.701Z,18.40
2017-07-18T07:15:55.590Z,18.57
2017-07-18T07:16:55.570Z,18.70
2017-07-18T07:17:55.622Z,18.79
2017-07-18T07:18:55.653Z,19.02
2017-07-18T07:19:55.557Z,19.09
2017-07-18T07:20:55.623Z,19.17
2017-07-18T07:21:55.590Z,19.25
2017-07-18T07:22:55.618Z,19.27
2017-07-18T07:23:55.582Z,19.15
2017-07-18T07:24:55.605Z,19.21
2017-07-18T07:25:55.542Z,19.31
2017-07-18T07:26:55.596Z,19.62
2017-07-18T07:27:55.536Z,19.84
2017-07-18T07:28:55.569Z,19.99
2017-07-18T07:29:55.532Z,20.05
2017-07-18T07:30:55.591Z,20.03
2017-07-18T07:31:55.568Z,19.99
2017-07-18T07:32:55.586Z,19.76
2017-07-18T07:33:55.570Z,19.72
2017-07-18T07:34:55.521Z,19.92
2017-07-18T07:35:55.587Z,20.10
2017-07-18T07:36:55.598Z,20.31
2017-07-18T07:37:55.565Z,20.53
2017-07-18T07:38:55.613Z,20.49
2017-07-18T07:39:55.550Z,20.52
2017-07-18T07:40:55.597Z,20.43
2017-07-18T07:41:55.635Z,20.42
2017-07-18T07:42:55.542Z,20.38
2017-07-18T07:43:55.549Z,20.39
2017-07-18T07:44:55.573Z,20.64
2017-07-18T07:45:55.630Z,20.70
2017-07-18T07:46:55.611Z,20.49
2017-07-18T07:47:55.580Z,20.46
2017-07-18T07:48:55.603Z,20.80
2017-07-18T07:49:55.668Z,21.09
2017-07-18T07:50:55.654Z,21.32
2017-07-18T07:51:55.668Z,21.62
2017-07-18T07:52:55.667Z,21.96
2017-07-18T07:53:55.612Z,22.27
2017-07-18T07:54:55.669Z,22.52
2017-07-18T07:55:55.579Z,22.64
2017-07-18T07:56:55.620Z,22.82
2017-07-18T07:57:55.607Z,22.68
2017-07-18T07:58:55.585Z,22.50
2017-07-18T07:59:55.583Z,22.76
2017-07-18T08:00:55.682Z,22.94
2017-07-18T08:01:55.659Z,23.04
2017-07-18T08:02:55.610Z,23.09
2017-07-18T08:03:55.637Z,22.79
2017-07-18T08:04:55.616Z,22.84
2017-07-18T08:05:55.615Z,23.08
2017-07-18T08:06:55.655Z,23.31
2017-07-18T08:07:55.614Z,23.24
2017-07-18T08:08:55.651Z,22.97
2017-07-18T08:09:55.618Z,23.16
2017-07-18T08:10:55.592Z,23.34
2017-07-18T08:11:55.606Z,23.34
2017-07-18T08:12:55.685Z,23.28
2017-07-18T08:13:55.681Z,23.16
2017-07-18T08:14:55.685Z,22.98
2017-07-18T08:15:55.667Z,23.05
2017-07-18T08:16:55.647Z,23.19
2017-07-18T08:17:55.581Z,23.02
2017-07-18T08:18:55.604Z,23.02
2017-07-18T08:19:55.645Z,23.11
2017-07-18T08:20:55.648Z,23.27
2017-07-18T08:21:55.584Z,23.38
2017-07-18T08:22:55.583Z,23.53
2017-07-18T08:23:55.653Z,23.53
2017-07-18T08:24:55.631Z,23.56
2017-07-18T08:25:55.614Z,23.56
2017-07-18T08:26:55.692Z,23.65
2017-07-18T08:27:55.695Z,23.89
2017-07-18T08:28:55.663Z,23.96
2017-07-18T08:29:55.651Z,24.02
2017-07-18T08:30:55.636Z,23.98
2017-07-18T08:31:55.609Z,23.98
2017-07-18T08:32:55.606Z,23.89
2017-07-18T08:33:55.692Z,24.01
2017-07-18T08:34:55.663Z,23.86
2017-07-18T08:35:55.699Z,23.91
2017-07-18T08:36:55.625Z,23.80
2017-07-18T08:37:55.696Z,23.74
2017-07-18T08:38:55.626Z,23.78
2017-07-18T08:39:55.672Z,23.98
2017-07-18T08:40:55.938Z,24.20
2017-07-18T08:41:55.610Z,24.11
2017-07-18T08:42:55.631Z,24.15
2017-07-18T08:43:55.609Z,24.34
2017-07-18T08:44:55.608Z,24.49
2017-07-18T08:45:55.795Z,24.49
2017-07-18T08:46:55.607Z,24.49
2017-07-18T08:47:55.669Z,24.40
2017-07-18T08:48:55.643Z,24.34
2017-07-18T08:49:55.663Z,24.20
2017-07-18T08:50:55.697Z,24.34
2017-07-18T08:51:55.618Z,24.19
2017-07-18T08:52:55.706Z,24.12
2017-07-18T08:53:55.646Z,24.25
2017-07-18T08:54:55.661Z,24.31
2017-07-18T08:55:55.631Z,24.41
2017-07-18T08:56:55.651Z,24.57
2017-07-18T08:57:55.647Z,24.81
2017-07-18T08:58:55.650Z,24.86
2017-07-18T08:59:55.654Z,25.06
2017-07-18T09:00:55.621Z,25.06
2017-07-18T09:01:55.622Z,24.98
2017-07-18T09:02:55.703Z,25.08
2017-07-18T09:03:55.618Z,25.04
2017-07-18T09:04:55.603Z,25.09
2017-07-18T09:05:55.555Z,25.02
2017-07-18T09:06:55.516Z,24.83
2017-07-18T09:07:55.561Z,25.02
2017-07-18T09:08:55.506Z,25.15
2017-07-18T09:09:55.573Z,25.35
2017-07-18T09:10:55.567Z,25.40
2017-07-18T09:11:55.555Z,25.44
2017-07-18T09:12:55.560Z,25.15
2017-07-18T09:13:55.646Z,24.89
2017-07-18T09:14:55.624Z,24.44
2017-07-18T09:15:55.581Z,24.56
2017-07-18T09:16:55.599Z,24.66
2017-07-18T09:17:55.625Z,24.72
2017-07-18T09:18:55.651Z,24.85
2017-07-18T09:19:55.655Z,25.08
2017-07-18T09:20:55.631Z,25.34
2017-07-18T09:21:55.650Z,25.48
2017-07-18T09:22:55.626Z,25.57
2017-07-18T09:23:55.694Z,25.31
2017-07-18T09:24:55.693Z,25.23
2017-07-18T09:25:55.725Z,25.17
2017-07-18T09:26:55.658Z,25.27
2017-07-18T09:27:55.630Z,25.41
2017-07-18T09:28:55.705Z,25.68
2017-07-18T09:29:55.690Z,25.88
2017-07-18T09:30:55.662Z,25.97
2017-07-18T09:31:55.707Z,25.89
2017-07-18T09:32:55.633Z,26.07
2017-07-18T09:33:55.657Z,26.19
2017-07-18T09:34:55.726Z,26.18
2017-07-18T09:35:55.670Z,26.11
2017-07-18T09:36:55.664Z,26.25
2017-07-18T09:37:55.635Z,25.92
2017-07-18T09:38:55.671Z,25.86
2017-07-18T09:39:55.637Z,25.84
2017-07-18T09:40:55.699Z,25.84
2017-07-18T09:41:55.698Z,25.88
2017-07-18T09:42:55.675Z,25.81
2017-07-18T09:43:55.608Z,25.74
2017-07-18T09:44:55.666Z,25.63
2017-07-18T09:45:55.664Z,25.74
2017-07-18T09:46:55.658Z,25.71
2017-07-18T09:47:55.647Z,25.84
2017-07-18T09:48:55.616Z,25.88
2017-07-18T09:49:55.615Z,25.77
2017-07-18T09:50:55.651Z,25.84
2017-07-18T09:51:55.673Z,25.56
2017-07-18T09:52:55.643Z,25.64
2017-07-18T09:53:55.661Z,25.78
2017-07-18T09:54:55.667Z,25.89
2017-07-18T09:55:55.712Z,26.11
2017-07-18T09:56:55.646Z,26.21
2017-07-18T09:57:55.627Z,26.43
2017-07-18T09:58:55.616Z,26.59
2017-07-18T09:59:55.716Z,26.60
2017-07-18T10:00:55.625Z,26.44
2017-07-18T10:01:55.648Z,26.13
2017-07-18T10:02:55.648Z,26.19
2017-07-18T10:03:55.737Z,26.19
2017-07-18T10:04:55.693Z,26.26
2017-07-18T10:05:55.709Z,26.36
2017-07-18T10:06:55.685Z,26.48
2017-07-18T10:07:55.748Z,26.58
2017-07-18T10:08:55.682Z,26.68
2017-07-18T10:09:55.730Z,26.95
2017-07-18T10:10:55.688Z,27.14
2017-07-18T10:11:55.684Z,27.23
2017-07-18T10:12:55.743Z,27.19
2017-07-18T10:13:55.751Z,27.40
2017-07-18T10:14:55.722Z,27.29
2017-07-18T10:15:55.742Z,27.39
2017-07-18T10:16:55.748Z,27.46
2017-07-18T10:17:55.728Z,27.11
2017-07-18T10:18:55.748Z,26.92
2017-07-18T10:19:55.726Z,26.95
2017-07-18T10:20:55.721Z,26.81
2017-07-18T10:21:55.696Z,26.60
2017-07-18T10:22:55.729Z,26.56
2017-07-18T10:23:55.662Z,26.26
2017-07-18T10:24:55.655Z,26.21
2017-07-18T10:25:55.687Z,26.32
2017-07-18T10:26:55.663Z,26.48
2017-07-18T10:27:55.712Z,26.47
2017-07-18T10:28:55.730Z,26.54
2017-07-18T10:29:55.690Z,26.49
2017-07-18T10:30:55.724Z,26.58
2017-07-18T10:31:55.722Z,26.34
2017-07-18T10:32:55.725Z,26.25
2017-07-18T10:33:55.662Z,26.26
2017-07-18T10:34:55.666Z,26.33
2017-07-18T10:35:55.679Z,26.36
2017-07-18T10:36:55.668Z,26.55
2017-07-18T10:37:55.659Z,26.68
2017-07-18T10:38:55.727Z,26.84
2017-07-18T10:39:55.732Z,26.72
2017-07-18T10:40:55.672Z,26.58
2017-07-18T10:41:55.695Z,26.34
2017-07-18T10:42:55.700Z,26.54
2017-07-18T10:43:55.733Z,26.75
2017-07-18T10:44:55.729Z,26.90
2017-07-18T10:45:55.736Z,27.03
2017-07-18T10:46:55.732Z,27.07
2017-07-18T10:47:55.732Z,26.90
2017-07-18T10:48:55.751Z,26.99
2017-07-18T10:49:55.687Z,27.14
2017-07-18T10:50:55.741Z,27.08
2017-07-18T10:51:55.744Z,27.18
2017-07-18T10:52:55.686Z,27.11
2017-07-18T10:53:55.688Z,27.18
2017-07-18T10:54:55.755Z,27.29
2017-07-18T10:55:55.686Z,27.44
2017-07-18T10:56:55.772Z,27.43
2017-07-18T10:57:55.720Z,27.58
2017-07-18T10:58:55.747Z,27.50
2017-07-18T10:59:55.690Z,27.37
2017-07-18T11:00:55.754Z,27.26
2017-07-18T11:01:55.780Z,27.03
2017-07-18T11:02:55.750Z,27.14
2017-07-18T11:03:55.712Z,27.03
2017-07-18T11:04:55.741Z,27.14
2017-07-18T11:05:55.747Z,27.33
2017-07-18T11:06:55.690Z,27.47
2017-07-18T11:07:55.695Z,27.54
2017-07-18T11:08:55.717Z,27.58
2017-07-18T11:09:55.779Z,27.66
2017-07-18T11:10:55.692Z,27.80
2017-07-18T11:11:55.719Z,27.85
2017-07-18T11:12:55.697Z,28.02
2017-07-18T11:13:55.729Z,28.21
2017-07-18T11:14:55.680Z,28.31
2017-07-18T11:15:55.682Z,28.29
2017-07-18T11:16:55.711Z,28.22
2017-07-18T11:17:55.711Z,28.24
2017-07-18T11:18:55.695Z,28.28
2017-07-18T11:19:55.750Z,28.04
2017-07-18T11:20:55.691Z,28.15
2017-07-18T11:21:55.751Z,28.20
2017-07-18T11:22:55.716Z,28.40
2017-07-18T11:23:55.756Z,28.35
2017-07-18T11:24:55.693Z,28.22
2017-07-18T11:25:55.697Z,28.22
2017-07-18T11:26:55.762Z,27.65
2017-07-18T11:27:55.697Z,27.00
2017-07-18T11:28:55.763Z,27.18
2017-07-18T11:29:55.726Z,27.36
2017-07-18T11:30:55.707Z,27.62
2017-07-18T11:31:55.667Z,27.91
2017-07-18T11:32:55.724Z,28.06
2017-07-18T11:33:55.699Z,28.28
2017-07-18T11:34:55.723Z,27.93
2017-07-18T11:35:55.766Z,27.81
2017-07-18T11:36:55.723Z,27.71
2017-07-18T11:37:55.704Z,27.57
2017-07-18T11:38:55.714Z,27.59
2017-07-18T11:39:55.779Z,27.84
2017-07-18T11:40:55.685Z,28.18
2017-07-18T11:41:55.717Z,28.39
2017-07-18T11:42:55.688Z,28.69
2017-07-18T11:43:55.687Z,28.90
2017-07-18T11:44:55.784Z,28.90
2017-07-18T11:45:55.765Z,28.97
2017-07-18T11:46:55.708Z,29.13
2017-07-18T11:47:55.771Z,29.12
2017-07-18T11:48:55.775Z,29.01
2017-07-18T11:49:55.714Z,28.75
2017-07-18T11:50:55.770Z,28.62
2017-07-18T11:51:55.749Z,28.64
2017-07-18T11:52:55.808Z,28.77
2017-07-18T11:53:55.796Z,28.97
2017-07-18T11:54:55.744Z,28.80
2017-07-18T11:55:55.784Z,28.84
2017-07-18T11:56:55.789Z,29.12
2017-07-18T11:57:55.785Z,29.14
2017-07-18T11:58:55.782Z,29.28
2017-07-18T11:59:55.808Z,29.04
2017-07-18T12:00:55.783Z,28.99
2017-07-18T12:01:55.722Z,28.87
2017-07-18T12:02:55.750Z,28.84
2017-07-18T12:03:55.748Z,28.69
2017-07-18T12:04:55.757Z,28.53
2017-07-18T12:05:55.787Z,28.42
2017-07-18T12:06:55.724Z,28.39
2017-07-18T12:07:55.727Z,27.99
2017-07-18T12:08:55.728Z,27.74
2017-07-18T12:09:55.762Z,27.52
2017-07-18T12:10:55.755Z,27.34
2017-07-18T12:11:55.822Z,27.54
2017-07-18T12:12:55.842Z,27.58
2017-07-18T12:13:55.779Z,27.71
2017-07-18T12:14:55.786Z,28.07
2017-07-18T12:15:55.789Z,28.40
2017-07-18T12:16:55.788Z,28.73
2017-07-18T12:17:55.754Z,28.77
2017-07-18T12:18:55.750Z,28.82
2017-07-18T12:19:55.751Z,28.99
2017-07-18T12:20:55.789Z,28.84
2017-07-18T12:21:55.730Z,28.82
2017-07-18T12:22:55.816Z,28.94
2017-07-18T12:23:55.793Z,29.13
2017-07-18T12:24:55.788Z,29.40
2017-07-18T12:25:55.743Z,29.06
2017-07-18T12:26:55.787Z,29.01
2017-07-18T12:27:55.821Z,29.16
2017-07-18T12:28:55.799Z,29.18
2017-07-18T12:29:55.744Z,29.29
2017-07-18T12:30:55.768Z,29.17
2017-07-18T12:31:55.770Z,29.21
2017-07-18T12:32:55.768Z,29.21
2017-07-18T12:33:55.833Z,29.41
2017-07-18T12:34:55.756Z,29.51
2017-07-18T12:35:55.760Z,29.41
2017-07-18T12:36:55.757Z,28.73
2017-07-18T12:37:55.748Z,28.55
2017-07-18T12:38:55.807Z,28.72
2017-07-18T12:39:55.708Z,29.04
2017-07-18T12:40:55.742Z,29.18
2017-07-18T12:41:55.806Z,29.41
2017-07-18T12:42:55.738Z,29.58
2017-07-18T12:43:55.855Z,29.32
2017-07-18T12:44:55.814Z,29.01
2017-07-18T12:45:55.777Z,29.14
2017-07-18T12:46:55.818Z,29.24
2017-07-18T12:47:55.846Z,29.37
2017-07-18T12:48:55.810Z,29.57
2017-07-18T12:49:55.835Z,29.83
2017-07-18T12:50:55.780Z,29.75
2017-07-18T12:51:55.749Z,29.59
2017-07-18T12:52:55.808Z,29.69
2017-07-18T12:53:55.746Z,29.55
2017-07-18T12:54:55.771Z,29.51
2017-07-18T12:55:55.809Z,29.29
2017-07-18T12:56:55.806Z,28.90
2017-07-18T12:57:55.772Z,29.02
2017-07-18T12:58:55.806Z,28.76
2017-07-18T12:59:55.769Z,28.11
2017-07-18T13:00:55.775Z,28.15